Time;durP1;ratioP1;P1;durP2;ratioP2;P2;SDS_P1;SDS_P2;PMS_P1;PMS_P2;Temp;Humidity;BMP_temperature;BMP_pressure;BME280_temperature;BME280_humidity;BME280_pressure;Samples;Min_cycle;Max_cycle;Signal;HPM_P1;HPM_P2
2023/09/14 00:02:20;;;;;;;;;;;;;;;11.00;100.00;102247.31;5048163;28;19921;-71
2023/09/14 00:04:46;;;;;;;;;;;;;;;10.99;100.00;102244.72;5046234;28;20375;-71
2023/09/14 00:07:11;;;;;;;;;;;;;;;10.91;100.00;102245.19;5048536;28;20375;-71
2023/09/14 00:09:36;;;;;;;;;;;;;;;10.85;100.00;102249.09;5045040;28;20281;-71
2023/09/14 00:12:02;;;;;;;;;;;;;;;10.84;100.00;102249.16;5047747;28;20401;-71
2023/09/14 00:14:28;;;;;;;;;;;;;;;10.83;100.00;102244.72;5052412;28;20015;-72
2023/09/14 00:16:53;;;;;;;;;;;;;;;10.70;100.00;102226.63;5051821;28;20321;-71
2023/09/14 00:19:18;;;;;;;;;;;;;;;10.84;100.00;102247.34;5054113;28;20122;-71
2023/09/14 00:21:43;;;;;;;;;;;;;;;10.94;100.00;102251.22;5053387;28;19962;-71
2023/09/14 00:24:09;;;;;;;;;;;;;;;11.03;100.00;102254.34;5048568;28;19979;-71
2023/09/14 00:26:34;;;;;;;;;;;;;;;11.16;100.00;102247.31;5046650;28;20436;-71
2023/09/14 00:28:59;;;;;;;;;;;;;;;11.27;100.00;102252.06;5052489;28;20015;-71
2023/09/14 00:31:24;;;;;;;;;;;;;;;11.31;100.00;102248.25;5053372;28;19920;-71
2023/09/14 00:33:49;;;;;;;;;;;;;;;11.30;100.00;102240.28;5053159;28;19940;-71
2023/09/14 00:36:15;;;;;;;;;;;;;;;11.29;100.00;102246.59;5054152;28;19924;-71
2023/09/14 00:38:40;;;;;;;;;;;;;;;11.26;100.00;102250.31;5055518;28;19920;-71
2023/09/14 00:41:05;;;;;;;;;;;;;;;11.23;100.00;102239.78;5048564;28;19960;-73
2023/09/14 00:43:31;;;;;;;;;;;;;;;11.27;100.00;102238.63;5052828;28;20051;-71
2023/09/14 00:45:56;;;;;;;;;;;;;;;11.31;100.00;102247.38;5047636;28;19926;-71
2023/09/14 00:48:21;;;;;;;;;;;;;;;11.38;100.00;102238.00;5051334;28;19924;-71
2023/09/14 00:50:47;;;;;;;;;;;;;;;11.46;100.00;102248.31;5052680;28;19920;-71
2023/09/14 00:53:13;;;;;;;;;;;;;;;11.57;100.00;102251.22;5053186;28;19926;-71
2023/09/14 00:55:38;;;;;;;;;;;;;;;11.62;100.00;102253.66;5050253;28;19995;-71
2023/09/14 00:58:03;;;;;;;;;;;;;;;11.67;100.00;102246.13;5055096;28;19927;-71
2023/09/14 01:00:29;;;;;;;;;;;;;;;11.69;100.00;102247.81;5048334;28;19923;-72
2023/09/14 01:02:58;;;;;;;;;;;;;;;11.74;100.00;102247.50;5052441;28;19920;-71
2023/09/14 01:05:28;;;;;;;;;;;;;;;11.77;100.00;102244.63;5047342;28;19936;-71
2023/09/14 01:07:53;;;;;;;;;;;;;;;11.79;100.00;102242.72;5050291;28;20371;-71
2023/09/14 01:10:18;;;;;;;;;;;;;;;11.80;100.00;102235.50;5037475;28;19935;-71
2023/09/14 01:12:46;;;;;;;;;;;;;;;11.80;100.00;102243.56;5053429;28;19920;-71
2023/09/14 01:15:20;;;;;;;;;;;;;;;11.75;100.00;102249.25;5047340;28;19920;-71
2023/09/14 01:17:58;;;;;;;;;;;;;;;11.74;100.00;102241.28;5046662;28;19928;-71
2023/09/14 01:20:36;;;;;;;;;;;;;;;11.67;100.00;102244.34;5043369;28;19920;-71
2023/09/14 01:23:17;;;;;;;;;;;;;;;11.64;100.00;102252.59;5050085;28;19920;-71
2023/09/14 01:25:43;;;;;;;;;;;;;;;11.63;100.00;102245.47;5046718;28;19931;-71
2023/09/14 01:28:10;;;;;;;;;;;;;;;11.64;100.00;102246.34;5046326;28;19924;-71
2023/09/14 01:30:37;;;;;;;;;;;;;;;11.60;100.00;102253.72;5046012;28;20424;-72
2023/09/14 01:33:04;;;;;;;;;;;;;;;11.46;100.00;102246.47;5046844;28;20358;-71
2023/09/14 01:35:29;;;;;;;;;;;;;;;11.36;100.00;102248.00;5052655;28;19920;-72
2023/09/14 01:37:55;;;;;;;;;;;;;;;11.31;100.00;102245.56;5052073;28;19924;-71
2023/09/14 01:40:20;;;;;;;;;;;;;;;11.26;100.00;102244.94;5041433;28;19989;-71
2023/09/14 01:42:45;;;;;;;;;;;;;;;11.20;100.00;102245.31;5048420;28;19925;-71
2023/09/14 01:45:10;;;;;;;;;;;;;;;11.13;100.00;102242.09;5056051;28;20243;-71
2023/09/14 01:47:36;;;;;;;;;;;;;;;11.12;100.00;102236.84;5049594;28;20032;-71
2023/09/14 01:50:01;;;;;;;;;;;;;;;11.07;100.00;102237.97;5034108;28;19920;-71
2023/09/14 01:52:26;;;;;;;;;;;;;;;11.03;100.00;102235.53;5057972;28;19920;-71
2023/09/14 01:54:51;;;;;;;;;;;;;;;10.97;100.00;102239.47;5035944;28;19921;-71
2023/09/14 01:57:17;;;;;;;;;;;;;;;10.89;100.00;102231.81;5051595;28;19928;-71
2023/09/14 01:59:42;;;;;;;;;;;;;;;10.85;100.00;102238.34;5053492;28;19967;-72
2023/09/14 02:02:07;;;;;;;;;;;;;;;10.83;100.00;102240.25;5052025;28;19930;-71
2023/09/14 02:04:32;;;;;;;;;;;;;;;10.80;100.00;102240.41;5047383;28;19930;-71
2023/09/14 02:06:58;;;;;;;;;;;;;;;10.76;100.00;102234.34;5047153;28;19928;-71
2023/09/14 02:09:25;;;;;;;;;;;;;;;10.67;100.00;102240.25;5050860;28;19920;-71
2023/09/14 02:11:50;;;;;;;;;;;;;;;10.67;100.00;102242.94;5050966;28;19939;-72
2023/09/14 02:14:15;;;;;;;;;;;;;;;10.62;100.00;102247.69;5045033;28;19920;-71
2023/09/14 02:16:40;;;;;;;;;;;;;;;10.58;100.00;102246.13;5047009;28;19917;-71
2023/09/14 02:19:06;;;;;;;;;;;;;;;10.55;100.00;102246.28;5053156;28;19966;-72
2023/09/14 02:21:31;;;;;;;;;;;;;;;10.56;100.00;102242.66;5046415;28;19974;-71
2023/09/14 02:23:57;;;;;;;;;;;;;;;10.53;100.00;102241.00;5047658;28;20057;-71
2023/09/14 02:26:22;;;;;;;;;;;;;;;10.55;100.00;102239.09;5050294;28;19916;-71
2023/09/14 02:28:47;;;;;;;;;;;;;;;10.61;100.00;102238.75;5046209;28;19924;-71
2023/09/14 02:31:13;;;;;;;;;;;;;;;10.66;100.00;102230.44;5048936;28;19932;-71
2023/09/14 02:33:38;;;;;;;;;;;;;;;10.69;100.00;102227.59;5049503;28;20271;-71
2023/09/14 02:36:03;;;;;;;;;;;;;;;10.74;100.00;102233.53;5051048;28;20799;-71
2023/09/14 02:38:28;;;;;;;;;;;;;;;10.72;100.00;102231.91;5051233;28;19916;-71
2023/09/14 02:40:54;;;;;;;;;;;;;;;10.58;100.00;102230.88;5049387;28;19948;-71
2023/09/14 02:43:19;;;;;;;;;;;;;;;10.58;100.00;102227.31;5052135;28;20007;-71
2023/09/14 02:45:44;;;;;;;;;;;;;;;10.49;100.00;102229.53;5051431;28;20121;-71
2023/09/14 02:48:09;;;;;;;;;;;;;;;10.42;100.00;102229.97;5049949;28;20380;-70
2023/09/14 02:50:34;;;;;;;;;;;;;;;10.33;100.00;102223.28;5053906;28;20381;-71
2023/09/14 02:53:00;;;;;;;;;;;;;;;10.26;100.00;102227.22;5047612;28;20007;-71
2023/09/14 02:55:25;;;;;;;;;;;;;;;10.17;100.00;102226.81;5042708;28;20019;-71
2023/09/14 02:57:50;;;;;;;;;;;;;;;10.15;100.00;102222.44;5048135;28;19960;-71
2023/09/14 03:00:17;;;;;;;;;;;;;;;10.15;100.00;102225.13;5052599;28;19920;-71
2023/09/14 03:02:43;;;;;;;;;;;;;;;10.13;100.00;102229.72;5047931;28;19924;-71
2023/09/14 03:05:09;;;;;;;;;;;;;;;10.12;100.00;102222.59;5045433;28;19951;-71
2023/09/14 03:07:34;;;;;;;;;;;;;;;10.11;100.00;102221.75;5054284;28;19927;-71
2023/09/14 03:09:59;;;;;;;;;;;;;;;10.02;100.00;102219.56;5033822;28;20398;-71
2023/09/14 03:12:25;;;;;;;;;;;;;;;9.99;100.00;102227.75;5045592;28;19931;-71
2023/09/14 03:14:50;;;;;;;;;;;;;;;9.96;100.00;102231.50;5049355;28;19935;-71
2023/09/14 03:17:15;;;;;;;;;;;;;;;9.92;100.00;102223.69;5048999;28;19955;-71
2023/09/14 03:19:41;;;;;;;;;;;;;;;9.94;100.00;102224.44;5050880;28;20018;-71
2023/09/14 03:22:07;;;;;;;;;;;;;;;9.96;100.00;102225.25;5047185;28;19927;-71
2023/09/14 03:24:32;;;;;;;;;;;;;;;9.93;100.00;102226.28;5049285;28;19928;-71
2023/09/14 03:26:57;;;;;;;;;;;;;;;9.94;100.00;102227.13;5047382;28;19928;-71
2023/09/14 03:29:22;;;;;;;;;;;;;;;9.92;100.00;102232.59;5050465;28;19974;-71
2023/09/14 03:31:50;;;;;;;;;;;;;;;9.91;100.00;102236.22;5026067;28;20017;-71
2023/09/14 03:34:15;;;;;;;;;;;;;;;9.89;100.00;102238.13;5050519;28;19928;-71
2023/09/14 03:36:40;;;;;;;;;;;;;;;9.83;100.00;102238.44;5046847;28;19916;-71
2023/09/14 03:39:06;;;;;;;;;;;;;;;9.79;100.00;102235.06;5044650;28;19975;-71
2023/09/14 03:41:31;;;;;;;;;;;;;;;9.74;100.00;102239.78;5046125;28;20067;-71
2023/09/14 03:43:56;;;;;;;;;;;;;;;9.71;100.00;102239.94;5050236;28;19928;-71
2023/09/14 03:46:23;;;;;;;;;;;;;;;9.64;100.00;102236.72;5046884;28;19917;-71
2023/09/14 03:48:48;;;;;;;;;;;;;;;9.61;100.00;102236.88;5029669;28;19925;-71
2023/09/14 03:51:13;;;;;;;;;;;;;;;9.59;100.00;102236.97;5058781;28;19928;-71
2023/09/14 03:53:38;;;;;;;;;;;;;;;9.55;100.00;102238.06;5061293;28;19960;-70
2023/09/14 03:56:03;;;;;;;;;;;;;;;9.52;100.00;102235.53;5049402;28;19921;-71
2023/09/14 03:58:30;;;;;;;;;;;;;;;9.52;100.00;102237.38;5059055;28;19927;-71
2023/09/14 04:00:55;;;;;;;;;;;;;;;9.50;100.00;102236.56;5052406;28;19928;-71
2023/09/14 04:03:20;;;;;;;;;;;;;;;9.48;100.00;102236.63;5056692;28;20396;-71
2023/09/14 04:05:45;;;;;;;;;;;;;;;9.48;100.00;102236.63;5040972;28;19928;-71
2023/09/14 04:08:11;;;;;;;;;;;;;;;9.46;100.00;102241.19;5061328;28;20185;-71
2023/09/14 04:10:37;;;;;;;;;;;;;;;9.43;100.00;102238.66;5055833;28;19921;-71
2023/09/14 04:13:21;;;;;;;;;;;;;;;9.41;100.00;102233.41;5052638;28;19973;-71
2023/09/14 04:15:47;;;;;;;;;;;;;;;9.42;100.00;102234.25;5051911;28;20409;-71
2023/09/14 04:18:12;;;;;;;;;;;;;;;9.46;100.00;102230.47;5057700;28;19924;-71
2023/09/14 04:20:37;;;;;;;;;;;;;;;9.49;100.00;102234.84;5053234;28;19916;-71
2023/09/14 04:23:02;;;;;;;;;;;;;;;9.53;100.00;102239.09;5050389;28;19921;-71
2023/09/14 04:25:28;;;;;;;;;;;;;;;9.60;100.00;102236.03;5045809;28;19960;-71
2023/09/14 04:27:53;;;;;;;;;;;;;;;9.69;100.00;102228.44;5075628;28;20362;-71
2023/09/14 04:30:18;;;;;;;;;;;;;;;9.76;100.00;102229.84;5054629;28;19928;-70
2023/09/14 04:32:43;;;;;;;;;;;;;;;9.81;100.00;102233.16;5053660;28;20439;-70
2023/09/14 04:35:09;;;;;;;;;;;;;;;9.86;100.00;102239.16;5049814;28;20442;-71
2023/09/14 04:37:34;;;;;;;;;;;;;;;9.89;100.00;102236.31;5053896;28;19978;-71
2023/09/14 04:39:59;;;;;;;;;;;;;;;9.89;100.00;102235.44;5031350;28;19943;-71
2023/09/14 04:42:24;;;;;;;;;;;;;;;9.92;100.00;102239.78;5050842;28;19924;-71
2023/09/14 04:44:51;;;;;;;;;;;;;;;9.95;100.00;102240.50;5059142;28;19968;-71
2023/09/14 04:47:16;;;;;;;;;;;;;;;9.96;100.00;102234.16;5054894;28;20434;-71
2023/09/14 04:49:41;;;;;;;;;;;;;;;9.98;100.00;102234.06;5049966;28;20043;-71
2023/09/14 04:52:07;;;;;;;;;;;;;;;9.99;100.00;102231.34;5049013;28;19963;-71
2023/09/14 04:54:32;;;;;;;;;;;;;;;9.99;100.00;102238.50;5055678;28;19921;-71
2023/09/14 04:56:57;;;;;;;;;;;;;;;10.01;100.00;102237.47;5053473;28;19916;-71
2023/09/14 04:59:24;;;;;;;;;;;;;;;10.03;100.00;102235.59;5049713;28;19917;-71
2023/09/14 05:01:49;;;;;;;;;;;;;;;10.00;100.00;102241.13;5052183;28;19924;-71
2023/09/14 05:04:14;;;;;;;;;;;;;;;9.95;100.00;102236.91;5048809;28;19954;-72
2023/09/14 05:06:39;;;;;;;;;;;;;;;9.96;100.00;102244.03;5053598;28;20213;-71
2023/09/14 05:09:04;;;;;;;;;;;;;;;9.95;100.00;102243.16;5054192;28;19986;-71
2023/09/14 05:11:30;;;;;;;;;;;;;;;9.98;100.00;102244.81;5052673;28;20219;-71
2023/09/14 05:13:55;;;;;;;;;;;;;;;9.96;100.00;102239.53;5051207;28;20259;-71
2023/09/14 05:16:20;;;;;;;;;;;;;;;9.93;100.00;102246.91;5055334;28;20385;-71
2023/09/14 05:18:45;;;;;;;;;;;;;;;9.85;100.00;102248.16;5047753;28;20512;-71
2023/09/14 05:21:12;;;;;;;;;;;;;;;9.79;100.00;102244.94;5049278;28;20389;-71
2023/09/14 05:23:37;;;;;;;;;;;;;;;9.79;100.00;102242.25;5047154;28;19986;-71
2023/09/14 05:26:02;;;;;;;;;;;;;;;9.79;100.00;102247.63;5051319;28;20401;-71
2023/09/14 05:28:27;;;;;;;;;;;;;;;9.83;100.00;102263.47;5056018;28;20354;-71
2023/09/14 05:30:53;;;;;;;;;;;;;;;9.83;100.00;102252.72;5050713;28;20425;-71
2023/09/14 05:33:18;;;;;;;;;;;;;;;9.85;100.00;102256.19;5045871;28;20740;-71
2023/09/14 05:35:43;;;;;;;;;;;;;;;9.73;100.00;102236.25;5046307;28;19912;-71
2023/09/14 05:38:09;;;;;;;;;;;;;;;9.83;100.00;102259.91;5043997;28;19927;-71
2023/09/14 05:40:34;;;;;;;;;;;;;;;9.82;100.00;102268.88;5044286;28;19928;-71
2023/09/14 05:42:59;;;;;;;;;;;;;;;9.80;100.00;102265.44;5046483;28;19924;-71
2023/09/14 05:45:24;;;;;;;;;;;;;;;9.83;100.00;102268.81;5032527;28;19975;-71
2023/09/14 05:47:50;;;;;;;;;;;;;;;9.87;100.00;102267.72;5040505;28;19963;-71
2023/09/14 05:50:15;;;;;;;;;;;;;;;9.88;100.00;102272.13;5043843;28;19998;-71
2023/09/14 05:52:40;;;;;;;;;;;;;;;9.90;100.00;102267.56;5046105;28;20472;-71
2023/09/14 05:55:06;;;;;;;;;;;;;;;9.95;100.00;102270.00;5044596;28;20361;-70
2023/09/14 05:57:31;;;;;;;;;;;;;;;9.97;100.00;102270.78;5045427;28;19979;-71
2023/09/14 05:59:57;;;;;;;;;;;;;;;10.04;100.00;102282.06;5042620;28;20374;-71
2023/09/14 06:02:22;;;;;;;;;;;;;;;10.12;100.00;102278.97;5044665;28;19924;-71
2023/09/14 06:04:47;;;;;;;;;;;;;;;10.15;100.00;102266.28;5039358;28;20377;-71
2023/09/14 06:07:12;;;;;;;;;;;;;;;10.29;100.00;102272.69;5045005;28;20350;-71
2023/09/14 06:09:38;;;;;;;;;;;;;;;10.40;100.00;102275.72;5048615;28;20351;-71
2023/09/14 06:12:03;;;;;;;;;;;;;;;10.55;100.00;102271.34;5064097;28;19959;-71
2023/09/14 06:14:29;;;;;;;;;;;;;;;10.71;100.00;102281.22;5053325;28;20011;-71
2023/09/14 06:16:54;;;;;;;;;;;;;;;10.84;100.00;102286.78;5044677;28;20023;-71
2023/09/14 06:19:19;;;;;;;;;;;;;;;10.97;100.00;102279.78;5033866;28;20015;-71
2023/09/14 06:21:44;;;;;;;;;;;;;;;11.09;100.00;102281.75;5044852;28;19982;-71
2023/09/14 06:24:10;;;;;;;;;;;;;;;11.23;100.00;102275.56;5045331;28;20043;-71
2023/09/14 06:26:35;;;;;;;;;;;;;;;11.39;100.00;102277.38;5044590;28;19920;-71
2023/09/14 06:29:00;;;;;;;;;;;;;;;11.50;100.00;102269.53;5032264;28;20007;-71
2023/09/14 06:31:26;;;;;;;;;;;;;;;11.59;100.00;102278.03;5048880;28;19930;-71
2023/09/14 06:33:51;;;;;;;;;;;;;;;11.68;100.00;102274.78;5046352;28;19930;-71
2023/09/14 06:36:19;;;;;;;;;;;;;;;11.79;100.00;102274.13;5047730;28;19930;-71
2023/09/14 06:38:45;;;;;;;;;;;;;;;11.95;100.00;102284.84;5047451;28;19931;-71
2023/09/14 06:41:10;;;;;;;;;;;;;;;12.06;100.00;102285.09;5030933;28;19924;-70
2023/09/14 06:43:36;;;;;;;;;;;;;;;12.13;100.00;102289.16;5048595;28;20268;-71
2023/09/14 06:46:01;;;;;;;;;;;;;;;12.25;100.00;102287.53;5040996;28;20026;-71
2023/09/14 06:48:26;;;;;;;;;;;;;;;12.35;100.00;102290.50;5030591;28;19920;-71
2023/09/14 06:50:51;;;;;;;;;;;;;;;12.39;100.00;102289.38;5044127;28;19924;-71
2023/09/14 06:53:16;;;;;;;;;;;;;;;12.41;100.00;102284.75;5030142;28;20398;-71
2023/09/14 06:55:42;;;;;;;;;;;;;;;12.49;100.00;102280.69;5020842;28;20455;-71
2023/09/14 06:58:08;;;;;;;;;;;;;;;12.52;100.00;102280.50;5027075;28;20390;-71
2023/09/14 07:00:33;;;;;;;;;;;;;;;12.58;100.00;102283.66;5027532;28;19920;-72
2023/09/14 07:02:58;;;;;;;;;;;;;;;12.66;100.00;102287.69;5046976;28;20176;-71
2023/09/14 07:05:24;;;;;;;;;;;;;;;12.76;100.00;102288.84;5044156;28;19935;-71
2023/09/14 07:07:49;;;;;;;;;;;;;;;12.81;100.00;102286.75;5058343;28;20380;-71
2023/09/14 07:10:14;;;;;;;;;;;;;;;12.87;100.00;102286.31;5047856;28;21123;-71
2023/09/14 07:12:39;;;;;;;;;;;;;;;13.01;100.00;102290.81;5025769;28;19920;-71
2023/09/14 07:15:05;;;;;;;;;;;;;;;13.12;100.00;102282.03;5037955;28;19924;-71
2023/09/14 07:17:30;;;;;;;;;;;;;;;13.29;100.00;102298.94;5026633;28;19932;-71
2023/09/14 07:19:55;;;;;;;;;;;;;;;13.31;100.00;102300.56;5037152;28;20590;-72
2023/09/14 07:22:20;;;;;;;;;;;;;;;13.41;100.00;102297.28;5030581;28;20739;-72
2023/09/14 07:24:46;;;;;;;;;;;;;;;13.45;100.00;102290.72;5043445;28;20029;-73
2023/09/14 07:27:12;;;;;;;;;;;;;;;13.53;100.00;102293.75;5037927;28;19999;-71
2023/09/14 07:29:37;;;;;;;;;;;;;;;13.57;100.00;102284.47;5041833;28;19930;-72
2023/09/14 07:32:03;;;;;;;;;;;;;;;13.59;100.00;102287.94;5044741;28;19955;-71
2023/09/14 07:34:28;;;;;;;;;;;;;;;13.72;100.00;102295.22;5045771;28;20547;-72
2023/09/14 07:36:53;;;;;;;;;;;;;;;13.87;100.00;102296.84;5042488;28;19919;-72
2023/09/14 07:39:19;;;;;;;;;;;;;;;14.03;100.00;102295.81;5044585;28;19960;-72
2023/09/14 07:41:44;;;;;;;;;;;;;;;14.12;100.00;102297.84;5040073;28;19961;-72
2023/09/14 07:44:09;;;;;;;;;;;;;;;14.27;100.00;102301.31;5040596;28;20394;-71
2023/09/14 07:46:35;;;;;;;;;;;;;;;14.47;100.00;102307.13;5041951;28;20521;-71
2023/09/14 07:49:00;;;;;;;;;;;;;;;14.63;100.00;102302.38;5042937;28;19982;-71
2023/09/14 07:51:25;;;;;;;;;;;;;;;14.62;100.00;102287.16;5043899;28;19932;-71
2023/09/14 07:53:51;;;;;;;;;;;;;;;14.85;100.00;102314.38;5046871;28;19928;-71
2023/09/14 07:56:16;;;;;;;;;;;;;;;14.87;100.00;102312.44;5044726;28;19966;-71
2023/09/14 07:58:41;;;;;;;;;;;;;;;15.03;100.00;102316.69;5042191;28;19948;-71
2023/09/14 08:01:07;;;;;;;;;;;;;;;15.08;100.00;102309.13;5040815;28;19925;-72
2023/09/14 08:03:32;;;;;;;;;;;;;;;14.82;100.00;102274.03;5027512;28;19963;-72
2023/09/14 08:05:57;;;;;;;;;;;;;;;15.17;100.00;102310.28;5045154;28;20311;-71
2023/09/14 08:08:22;;;;;;;;;;;;;;;15.34;100.00;102309.03;5040690;28;19958;-71
2023/09/14 08:10:48;;;;;;;;;;;;;;;15.51;100.00;102305.03;5037676;28;20043;-72
2023/09/14 08:13:13;;;;;;;;;;;;;;;15.55;100.00;102307.41;5027345;28;19921;-71
2023/09/14 08:15:39;;;;;;;;;;;;;;;15.72;100.00;102305.25;5039859;28;19924;-71
2023/09/14 08:18:04;;;;;;;;;;;;;;;15.95;100.00;102303.50;5043274;28;20269;-71
2023/09/14 08:20:30;;;;;;;;;;;;;;;15.94;100.00;102284.69;5042357;28;20207;-72
2023/09/14 08:22:55;;;;;;;;;;;;;;;16.24;100.00;102303.06;5045627;28;20345;-71
2023/09/14 08:25:20;;;;;;;;;;;;;;;16.19;100.00;102298.03;5042309;28;20026;-71
2023/09/14 08:27:45;;;;;;;;;;;;;;;16.20;100.00;102298.88;5039103;28;20334;-72
2023/09/14 08:30:11;;;;;;;;;;;;;;;16.13;100.00;102294.94;5042903;28;20397;-72
2023/09/14 08:32:36;;;;;;;;;;;;;;;16.19;100.00;102299.84;5038567;28;20526;-72
2023/09/14 08:35:20;;;;;;;;;;;;;;;16.37;100.00;102297.53;5041864;28;20197;-71
2023/09/14 08:37:45;;;;;;;;;;;;;;;16.47;100.00;102294.94;5042781;28;19921;-71
2023/09/14 08:40:12;;;;;;;;;;;;;;;16.60;100.00;102298.41;5030509;28;19955;-71
2023/09/14 08:42:38;;;;;;;;;;;;;;;16.74;100.00;102297.28;5038564;28;20294;-71
2023/09/14 08:45:03;;;;;;;;;;;;;;;16.81;100.00;102302.22;5045511;28;20232;-71
2023/09/14 08:47:29;;;;;;;;;;;;;;;16.93;100.00;102296.66;5029202;28;19957;-71
2023/09/14 08:49:54;;;;;;;;;;;;;;;17.08;100.00;102299.13;5044497;28;20035;-71
2023/09/14 08:52:19;;;;;;;;;;;;;;;17.09;100.00;102304.41;5048215;28;19917;-72
2023/09/14 08:54:44;;;;;;;;;;;;;;;17.09;100.00;102307.13;5038725;28;19924;-71
2023/09/14 08:57:10;;;;;;;;;;;;;;;17.28;100.00;102300.19;5042406;28;19920;-71
2023/09/14 08:59:35;;;;;;;;;;;;;;;17.48;100.00;102298.50;5047470;28;19935;-71
2023/09/14 09:02:00;;;;;;;;;;;;;;;17.58;100.00;102301.31;5048336;28;19971;-71
2023/09/14 09:04:26;;;;;;;;;;;;;;;17.76;100.00;102289.84;5044080;28;20280;-71
2023/09/14 09:06:51;;;;;;;;;;;;;;;18.01;100.00;102290.50;5043089;28;20203;-71
2023/09/14 09:09:17;;;;;;;;;;;;;;;18.01;100.00;102285.06;5048808;28;20011;-71
2023/09/14 09:11:43;;;;;;;;;;;;;;;17.96;100.00;102289.00;5026653;28;19924;-71
2023/09/14 09:14:09;;;;;;;;;;;;;;;18.00;100.00;102281.50;5048381;28;19943;-71
2023/09/14 09:16:34;;;;;;;;;;;;;;;18.18;100.00;102287.16;5041311;28;20835;-71
2023/09/14 09:19:03;;;;;;;;;;;;;;;18.33;100.00;102281.38;5039418;28;20380;-71
2023/09/14 09:21:29;;;;;;;;;;;;;;;18.50;100.00;102260.84;5049804;28;19925;-71
2023/09/14 09:23:54;;;;;;;;;;;;;;;18.91;100.00;102283.44;5047658;28;19927;-71
2023/09/14 09:26:19;;;;;;;;;;;;;;;19.01;100.00;102273.47;5045484;28;19921;-71
2023/09/14 09:28:48;;;;;;;;;;;;;;;19.08;100.00;102273.78;5026077;28;19921;-71
2023/09/14 09:31:13;;;;;;;;;;;;;;;19.04;100.00;102280.50;5040106;28;19924;-71
2023/09/14 09:33:40;;;;;;;;;;;;;;;18.88;100.00;102281.00;5041125;28;20235;-71
2023/09/14 09:36:15;;;;;;;;;;;;;;;18.94;100.00;102285.00;5042991;28;20367;-71
2023/09/14 09:38:40;;;;;;;;;;;;;;;18.66;100.00;102282.09;5044369;28;19974;-71
2023/09/14 09:41:10;;;;;;;;;;;;;;;18.48;100.00;102277.28;5044176;28;20302;-71
2023/09/14 09:43:35;;;;;;;;;;;;;;;18.76;100.00;102272.09;5049624;28;19925;-71
2023/09/14 09:46:00;;;;;;;;;;;;;;;18.83;100.00;102270.53;5060943;28;19929;-73
2023/09/14 09:48:27;;;;;;;;;;;;;;;18.52;100.00;102273.28;5045534;28;19943;-72
2023/09/14 09:50:53;;;;;;;;;;;;;;;18.58;100.00;102271.88;5045174;28;19920;-72
2023/09/14 09:53:19;;;;;;;;;;;;;;;18.71;100.00;102272.50;5046742;28;19924;-71
2023/09/14 09:55:47;;;;;;;;;;;;;;;18.63;100.00;102277.78;5039906;28;20243;-71
2023/09/14 09:58:16;;;;;;;;;;;;;;;18.72;100.00;102263.34;5032089;28;19972;-71
2023/09/14 10:00:42;;;;;;;;;;;;;;;18.81;100.00;102268.94;5037142;28;19921;-71
2023/09/14 10:03:07;;;;;;;;;;;;;;;19.28;100.00;102268.34;5036717;28;19951;-71
2023/09/14 10:05:33;;;;;;;;;;;;;;;19.57;100.00;102262.91;5042715;28;20023;-71
2023/09/14 10:07:59;;;;;;;;;;;;;;;19.22;100.00;102247.13;5037876;28;19920;-71
2023/09/14 10:10:25;;;;;;;;;;;;;;;18.91;100.00;102269.00;5043481;28;19924;-71
2023/09/14 10:12:50;;;;;;;;;;;;;;;19.02;100.00;102277.03;5041753;28;19921;-71
2023/09/14 10:15:15;;;;;;;;;;;;;;;19.28;100.00;102257.44;5035683;28;20389;-71
2023/09/14 10:17:41;;;;;;;;;;;;;;;19.51;100.00;102258.03;5046033;28;19935;-71
2023/09/14 10:20:08;;;;;;;;;;;;;;;19.97;100.00;102260.13;5046527;28;19943;-71
2023/09/14 10:22:33;;;;;;;;;;;;;;;20.36;100.00;102254.56;5042696;28;19920;-71
2023/09/14 10:24:58;;;;;;;;;;;;;;;20.41;100.00;102249.50;5044940;28;19936;-71
2023/09/14 10:27:24;;;;;;;;;;;;;;;20.72;100.00;102256.53;5049387;28;19966;-71
2023/09/14 10:29:50;;;;;;;;;;;;;;;20.54;100.00;102260.06;5046410;28;19975;-73
2023/09/14 10:32:15;;;;;;;;;;;;;;;20.50;98.46;102258.69;5042734;28;19985;-71
2023/09/14 10:34:40;;;;;;;;;;;;;;;20.61;100.00;102252.16;5046269;28;19956;-71
2023/09/14 10:37:06;;;;;;;;;;;;;;;20.40;88.62;102244.22;5047984;28;20339;-72
2023/09/14 10:39:31;;;;;;;;;;;;;;;19.78;90.07;102242.81;5045249;28;20412;-72
2023/09/14 10:41:57;;;;;;;;;;;;;;;19.99;94.69;102244.50;5047011;28;20027;-71
2023/09/14 10:44:22;;;;;;;;;;;;;;;20.68;100.00;102232.28;5044951;28;20504;-71
2023/09/14 10:46:47;;;;;;;;;;;;;;;21.47;95.90;102239.06;5043007;28;20037;-71
2023/09/14 10:49:12;;;;;;;;;;;;;;;21.92;97.08;102238.06;5048066;28;19913;-71
2023/09/14 10:51:38;;;;;;;;;;;;;;;21.65;82.90;102242.66;5042352;28;19974;-71
2023/09/14 10:54:03;;;;;;;;;;;;;;;21.60;73.73;102227.72;5044657;28;20381;-71
2023/09/14 10:56:31;;;;;;;;;;;;;;;21.64;73.72;102220.94;5046514;28;19920;-71
2023/09/14 10:58:57;;;;;;;;;;;;;;;21.58;69.48;102220.53;5044118;28;19924;-71
2023/09/14 11:01:26;;;;;;;;;;;;;;;20.88;72.63;102223.16;5044907;28;19962;-72
2023/09/14 11:04:15;;;;;;;;;;;;;;;20.86;68.67;102222.44;5044679;28;20257;-72
2023/09/14 11:06:41;;;;;;;;;;;;;;;20.61;69.04;102223.00;5045471;28;20110;-71
2023/09/14 11:09:07;;;;;;;;;;;;;;;20.68;73.15;102223.22;5041813;28;20193;-71
2023/09/14 11:11:44;;;;;;;;;;;;;;;20.76;71.66;102223.34;5042215;28;20323;-71
2023/09/14 11:14:10;;;;;;;;;;;;;;;21.25;81.19;102217.53;5044961;28;19928;-71
2023/09/14 11:16:41;;;;;;;;;;;;;;;21.73;84.63;102217.25;5027024;28;20412;-71
2023/09/14 11:19:06;;;;;;;;;;;;;;;21.90;81.43;102222.81;5043212;28;19920;-71
2023/09/14 11:21:31;;;;;;;;;;;;;;;21.10;76.48;102208.16;5038929;28;20372;-71
2023/09/14 11:23:57;;;;;;;;;;;;;;;20.45;86.88;102218.19;5043735;28;20504;-73
2023/09/14 11:26:29;;;;;;;;;;;;;;;20.26;88.48;102221.84;5044776;28;19951;-72
2023/09/14 11:28:54;;;;;;;;;;;;;;;20.30;94.68;102226.00;5042308;28;19928;-71
2023/09/14 11:31:26;;;;;;;;;;;;;;;20.59;89.00;102215.97;5042585;28;20302;-71
2023/09/14 11:33:51;;;;;;;;;;;;;;;21.87;84.37;102218.56;5045627;28;19961;-71
2023/09/14 11:36:17;;;;;;;;;;;;;;;22.63;75.89;102221.53;5041015;28;20039;-72
2023/09/14 11:38:42;;;;;;;;;;;;;;;22.32;65.62;102224.78;5040974;28;20009;-71
2023/09/14 11:41:07;;;;;;;;;;;;;;;22.49;73.69;102225.75;5041686;28;20058;-71
2023/09/14 11:43:38;;;;;;;;;;;;;;;22.57;63.69;102224.91;5046116;28;19923;-72
2023/09/14 11:46:04;;;;;;;;;;;;;;;24.00;66.44;102217.47;5045636;28;19935;-70
2023/09/14 11:48:34;;;;;;;;;;;;;;;24.70;57.37;102219.41;5045374;28;19921;-71
2023/09/14 11:51:02;;;;;;;;;;;;;;;24.79;63.21;102222.16;5045869;28;19920;-71
2023/09/14 11:53:28;;;;;;;;;;;;;;;24.26;53.43;102220.81;5041060;28;19964;-73
2023/09/14 11:55:53;;;;;;;;;;;;;;;24.18;52.16;102217.25;5039231;28;20399;-71
2023/09/14 11:58:18;;;;;;;;;;;;;;;24.40;51.32;102218.38;5047006;28;21888;-72
2023/09/14 12:00:45;;;;;;;;;;;;;;;23.95;54.90;102215.25;5040768;28;19921;-72
2023/09/14 12:03:10;;;;;;;;;;;;;;;23.49;56.63;102213.97;5029943;28;19943;-71
2023/09/14 12:05:35;;;;;;;;;;;;;;;22.93;63.67;102219.19;5040752;28;20430;-71
2023/09/14 12:08:10;;;;;;;;;;;;;;;22.81;60.43;102217.78;5041423;28;20350;-71
2023/09/14 12:10:36;;;;;;;;;;;;;;;21.95;62.58;102207.69;5048720;28;19971;-73
2023/09/14 12:13:27;;;;;;;;;;;;;;;21.25;63.47;102209.34;5046474;28;20023;-71
2023/09/14 12:15:57;;;;;;;;;;;;;;;21.29;73.45;102212.63;5043904;28;20017;-71
2023/09/14 12:18:22;;;;;;;;;;;;;;;21.35;65.43;102213.84;5048900;28;19921;-71
2023/09/14 12:20:48;;;;;;;;;;;;;;;23.60;61.34;102207.25;5046584;28;19928;-71
2023/09/14 12:23:13;;;;;;;;;;;;;;;26.01;49.54;102204.81;5045595;28;20023;-73
2023/09/14 12:25:41;;;;;;;;;;;;;;;26.33;45.94;102205.50;5044058;28;20027;-71